Аэропорт: Минеральные Воды. Минеральные Воды

ICAO: URMM

METAR:
2020-10-19 22:30:00
URMM 192230Z 28007MPS 9999 SCT034 13/09 Q1021 R30/290050 NOSIG RMK QFE737/0983
METAR:
2020-10-19 20:00:00
TAF URMM 192000Z 1921/2021 29007G14MPS 9999 BKN020 TX15/2012Z TN11/2003Z TEMPO 1921/2006 3100 -SHRA BKN011 BKN020CB